createdAt,value
2018-11-06T00:00:37.559Z,6.96
2018-11-06T00:01:37.649Z,6.94
2018-11-06T00:02:37.778Z,6.96
2018-11-06T00:03:38.253Z,6.96
2018-11-06T00:04:38.985Z,6.97
2018-11-06T00:05:38.985Z,6.97
2018-11-06T00:06:39.069Z,6.97
2018-11-06T00:07:39.237Z,6.95
2018-11-06T00:08:39.209Z,6.94
2018-11-06T00:09:39.308Z,6.93
2018-11-06T00:10:39.427Z,6.93
2018-11-06T00:11:39.903Z,6.93
2018-11-06T00:12:39.795Z,6.89
2018-11-06T00:14:40.009Z,6.87
2018-11-06T00:15:40.410Z,6.83
2018-11-06T00:16:40.829Z,6.82
2018-11-06T00:17:41.240Z,6.80
2018-11-06T00:18:41.688Z,6.79
2018-11-06T00:19:42.082Z,6.78
2018-11-06T00:20:42.485Z,6.74
2018-11-06T00:21:42.399Z,6.75
2018-11-06T00:22:42.516Z,6.74
2018-11-06T00:23:42.918Z,6.74
2018-11-06T00:24:43.327Z,6.72
2018-11-06T00:25:43.646Z,6.68
2018-11-06T00:26:44.063Z,6.67
2018-11-06T00:27:44.481Z,6.65
2018-11-06T00:28:44.817Z,6.64
2018-11-06T00:29:45.137Z,6.63
2018-11-06T00:30:45.561Z,6.63
2018-11-06T00:31:45.931Z,6.59
2018-11-06T00:32:46.353Z,6.58
2018-11-06T00:33:46.788Z,6.57
2018-11-06T00:34:47.248Z,6.57
2018-11-06T00:35:47.594Z,6.60
2018-11-06T00:36:48.402Z,6.61
2018-11-06T00:37:49.126Z,6.58
2018-11-06T00:38:49.335Z,6.53
2018-11-06T00:39:49.873Z,6.50
2018-11-06T00:40:49.965Z,6.50
2018-11-06T00:41:49.766Z,6.51
2018-11-06T00:42:50.283Z,6.51
2018-11-06T00:43:50.291Z,6.53
2018-11-06T00:44:50.296Z,6.53
2018-11-06T00:45:50.208Z,6.54
2018-11-06T00:46:50.823Z,6.53
2018-11-06T00:47:50.934Z,6.53
2018-11-06T00:48:51.043Z,6.54
2018-11-06T00:49:51.053Z,6.53
2018-11-06T00:50:51.684Z,6.51
2018-11-06T00:51:51.369Z,6.49
2018-11-06T00:52:51.683Z,6.47
2018-11-06T00:53:51.997Z,6.44
2018-11-06T00:54:52.010Z,6.42
2018-11-06T00:55:51.923Z,6.42
2018-11-06T00:56:52.389Z,6.40
2018-11-06T00:57:52.610Z,6.39
2018-11-06T00:58:52.722Z,6.36
2018-11-06T00:59:53.988Z,6.34
2018-11-06T01:00:53.152Z,6.31
2018-11-06T01:01:53.495Z,6.32
2018-11-06T01:02:53.788Z,6.28
2018-11-06T01:03:53.950Z,6.28
2018-11-06T01:04:54.348Z,6.27
2018-11-06T01:05:54.203Z,6.23
2018-11-06T01:06:54.581Z,6.17
2018-11-06T01:07:55.008Z,6.13
2018-11-06T01:08:55.339Z,6.09
2018-11-06T01:09:55.888Z,6.05
2018-11-06T01:10:55.780Z,6.06
2018-11-06T01:11:56.143Z,6.06
2018-11-06T01:12:56.559Z,6.06
2018-11-06T01:13:57.163Z,6.07
2018-11-06T01:14:57.089Z,6.08
2018-11-06T01:15:57.497Z,6.08
2018-11-06T01:16:57.803Z,6.07
2018-11-06T01:17:58.128Z,6.05
2018-11-06T01:18:58.535Z,6.03
2018-11-06T01:19:58.962Z,6.04
2018-11-06T01:20:59.345Z,6.04
2018-11-06T01:21:59.682Z,6.05
2018-11-06T01:22:59.986Z,6.04
2018-11-06T01:24:00.405Z,6.04
2018-11-06T01:25:00.832Z,6.02
2018-11-06T01:26:00.875Z,6.02
2018-11-06T01:27:01.251Z,6.03
2018-11-06T01:28:01.447Z,6.04
2018-11-06T01:29:01.883Z,6.06
2018-11-06T01:30:02.580Z,6.11
2018-11-06T01:31:03.309Z,6.15
2018-11-06T01:32:04.008Z,6.16
2018-11-06T01:33:04.437Z,6.16
2018-11-06T01:34:04.851Z,6.14
2018-11-06T01:35:05.198Z,6.13
2018-11-06T01:36:04.977Z,6.14
2018-11-06T01:37:05.382Z,6.17
2018-11-06T01:38:05.800Z,6.20
2018-11-06T01:39:05.942Z,6.22
2018-11-06T01:40:06.080Z,6.26
2018-11-06T01:41:06.345Z,6.30
2018-11-06T01:42:07.257Z,6.34
2018-11-06T01:43:06.993Z,6.34
2018-11-06T01:44:07.036Z,6.34
2018-11-06T01:45:07.306Z,6.33
2018-11-06T01:46:07.382Z,6.33
2018-11-06T01:47:07.493Z,6.34
2018-11-06T01:48:07.660Z,6.36
2018-11-06T01:49:07.879Z,6.38
2018-11-06T01:50:08.015Z,6.42
2018-11-06T01:51:08.240Z,6.48
2018-11-06T01:52:08.548Z,6.54
2018-11-06T01:53:08.741Z,6.58
2018-11-06T01:54:08.927Z,6.62
2018-11-06T01:55:08.993Z,6.64
2018-11-06T01:56:08.994Z,6.68
2018-11-06T01:57:09.173Z,6.69
2018-11-06T01:58:09.214Z,6.71
2018-11-06T01:59:09.302Z,6.75
2018-11-06T02:00:09.138Z,6.77
2018-11-06T02:01:09.689Z,6.79
2018-11-06T02:02:10.217Z,6.80
2018-11-06T02:03:10.128Z,6.83
2018-11-06T02:04:10.456Z,6.85
2018-11-06T02:05:10.740Z,6.85
2018-11-06T02:06:10.755Z,6.84
2018-11-06T02:07:11.142Z,6.83
2018-11-06T02:08:11.596Z,6.81
2018-11-06T02:09:11.964Z,6.79
2018-11-06T02:10:12.499Z,6.79
2018-11-06T02:11:12.694Z,6.78
2018-11-06T02:12:13.119Z,6.76
2018-11-06T02:13:13.462Z,6.77
2018-11-06T02:14:13.839Z,6.75
2018-11-06T02:15:14.537Z,6.75
2018-11-06T02:16:14.367Z,6.75
2018-11-06T02:17:14.908Z,6.76
2018-11-06T02:18:14.788Z,6.75
2018-11-06T02:19:15.203Z,6.75
2018-11-06T02:20:15.991Z,6.73
2018-11-06T02:21:15.869Z,6.73
2018-11-06T02:22:16.307Z,6.70
2018-11-06T02:23:16.667Z,6.72
2018-11-06T02:24:16.987Z,6.76
2018-11-06T02:25:17.298Z,6.81
2018-11-06T02:26:17.714Z,6.83
2018-11-06T02:27:18.828Z,6.86
2018-11-06T02:28:19.029Z,6.88
2018-11-06T02:29:19.648Z,6.89
2018-11-06T02:30:19.449Z,6.89
2018-11-06T02:31:19.762Z,6.88
2018-11-06T02:32:20.351Z,6.88
2018-11-06T02:33:20.192Z,6.93
2018-11-06T02:34:20.820Z,6.95
2018-11-06T02:35:20.818Z,6.95
2018-11-06T02:36:20.835Z,6.97
2018-11-06T02:37:20.907Z,6.99
2018-11-06T02:38:21.141Z,7.02
2018-11-06T02:39:21.460Z,7.05
2018-11-06T02:40:21.772Z,7.05
2018-11-06T02:41:21.972Z,7.03
2018-11-06T02:42:21.985Z,7.04
2018-11-06T02:43:22.185Z,7.02
2018-11-06T02:44:22.277Z,7.02
2018-11-06T02:45:22.290Z,7.01
2018-11-06T02:46:22.282Z,7.00
2018-11-06T02:47:22.530Z,7.00
2018-11-06T02:48:23.120Z,6.97
2018-11-06T02:49:22.733Z,6.95
2018-11-06T02:50:22.854Z,6.94
2018-11-06T02:51:22.956Z,6.92
2018-11-06T02:52:23.098Z,6.91
2018-11-06T02:53:23.388Z,6.90
2018-11-06T02:54:23.688Z,6.90
2018-11-06T02:55:23.875Z,6.92
2018-11-06T02:56:24.063Z,6.96
2018-11-06T02:57:24.436Z,6.97
2018-11-06T02:58:24.505Z,6.99
2018-11-06T02:59:24.411Z,7.01
2018-11-06T03:00:24.733Z,7.02
2018-11-06T03:01:25.270Z,7.04
2018-11-06T03:02:25.228Z,7.09
2018-11-06T03:03:25.542Z,7.13
2018-11-06T03:04:25.672Z,7.18
2018-11-06T03:05:26.107Z,7.22
2018-11-06T03:06:26.673Z,7.27
2018-11-06T03:07:26.717Z,7.30
2018-11-06T03:08:26.591Z,7.35
2018-11-06T03:09:27.029Z,7.37
2018-11-06T03:10:27.512Z,7.40
2018-11-06T03:11:27.892Z,7.42
2018-11-06T03:12:28.235Z,7.44
2018-11-06T03:13:28.546Z,7.47
2018-11-06T03:14:28.880Z,7.51
2018-11-06T03:15:29.304Z,7.54
2018-11-06T03:16:29.607Z,7.58
2018-11-06T03:17:29.896Z,7.62
2018-11-06T03:18:30.229Z,7.63
2018-11-06T03:19:30.738Z,7.65
2018-11-06T03:20:31.073Z,7.68
2018-11-06T03:21:31.516Z,7.69
2018-11-06T03:22:31.954Z,7.72
2018-11-06T03:23:32.337Z,7.74
2018-11-06T03:24:32.746Z,7.75
2018-11-06T03:25:33.940Z,7.76
2018-11-06T03:26:34.045Z,7.77
2018-11-06T03:27:34.374Z,7.78
2018-11-06T03:28:34.783Z,7.79
2018-11-06T03:29:35.301Z,7.81
2018-11-06T03:30:34.898Z,7.81
2018-11-06T03:32:35.438Z,7.81
2018-11-06T03:33:34.968Z,7.85
2018-11-06T03:34:35.231Z,7.86
2018-11-06T03:35:35.542Z,7.86
2018-11-06T03:36:35.651Z,7.89
2018-11-06T03:37:36.083Z,7.89
2018-11-06T03:38:36.985Z,7.91
2018-11-06T03:39:36.156Z,7.92
2018-11-06T03:40:36.397Z,7.93
2018-11-06T03:41:36.709Z,7.92
2018-11-06T03:42:36.919Z,7.93
2018-11-06T03:43:37.107Z,7.93
2018-11-06T03:44:37.399Z,7.94
2018-11-06T03:45:37.630Z,7.94
2018-11-06T03:46:37.750Z,7.95
2018-11-06T03:47:37.903Z,7.95
2018-11-06T03:48:38.190Z,7.96
2018-11-06T03:49:38.500Z,7.97
2018-11-06T03:50:38.687Z,7.98
2018-11-06T03:51:38.912Z,8.00
2018-11-06T03:52:38.930Z,7.99
2018-11-06T03:53:39.016Z,7.98
2018-11-06T03:54:39.377Z,7.99
2018-11-06T03:55:39.859Z,7.99
2018-11-06T03:56:40.222Z,7.99
2018-11-06T03:58:40.749Z,7.99
2018-11-06T03:59:40.779Z,8.00
2018-11-06T04:00:41.187Z,7.99
2018-11-06T04:01:41.577Z,7.99
2018-11-06T04:02:42.007Z,7.98
2018-11-06T04:03:42.143Z,7.98
2018-11-06T04:04:42.228Z,7.97
2018-11-06T04:05:42.642Z,7.96
2018-11-06T04:06:43.050Z,7.97
2018-11-06T04:07:43.469Z,7.95
2018-11-06T04:08:43.920Z,7.92
2018-11-06T04:09:44.625Z,7.89
2018-11-06T04:10:44.505Z,7.84
2018-11-06T04:11:44.805Z,7.81
2018-11-06T04:12:45.162Z,7.77
2018-11-06T04:13:45.695Z,7.73
2018-11-06T04:14:45.546Z,7.70
2018-11-06T04:15:45.958Z,7.66
2018-11-06T04:16:46.290Z,7.61
2018-11-06T04:17:46.665Z,7.60
2018-11-06T04:18:47.037Z,7.56
2018-11-06T04:19:47.316Z,7.52
2018-11-06T04:20:47.646Z,7.49
2018-11-06T04:21:48.334Z,7.47
2018-11-06T04:22:48.656Z,7.45
2018-11-06T04:23:49.288Z,7.41
2018-11-06T04:24:49.485Z,7.40
2018-11-06T04:25:49.900Z,7.39
2018-11-06T04:26:50.111Z,7.36
2018-11-06T04:27:50.425Z,7.36
2018-11-06T04:28:50.942Z,7.35
2018-11-06T04:29:50.816Z,7.35
2018-11-06T04:30:51.365Z,7.36
2018-11-06T04:31:51.144Z,7.38
2018-11-06T04:32:51.191Z,7.41
2018-11-06T04:33:51.318Z,7.42
2018-11-06T04:34:51.812Z,7.42
2018-11-06T04:35:51.898Z,7.43
2018-11-06T04:36:51.905Z,7.44
2018-11-06T04:37:51.905Z,7.45
2018-11-06T04:38:52.313Z,7.46
2018-11-06T04:39:52.492Z,7.46
2018-11-06T04:40:52.659Z,7.45
2018-11-06T04:41:52.963Z,7.45
2018-11-06T04:42:53.049Z,7.44
2018-11-06T04:43:53.136Z,7.44
2018-11-06T04:44:53.410Z,7.43
2018-11-06T04:45:53.677Z,7.43
2018-11-06T04:46:53.860Z,7.43
2018-11-06T04:47:54.178Z,7.43
2018-11-06T04:48:54.181Z,7.44
2018-11-06T04:49:54.349Z,7.44
2018-11-06T04:50:54.399Z,7.44
2018-11-06T04:51:54.482Z,7.43
2018-11-06T04:52:54.485Z,7.44
2018-11-06T04:53:54.896Z,7.43
2018-11-06T04:54:54.921Z,7.44
2018-11-06T04:55:55.443Z,7.44
2018-11-06T04:56:55.270Z,7.47
2018-11-06T04:57:55.640Z,7.49
2018-11-06T04:58:55.990Z,7.49
2018-11-06T04:59:56.400Z,7.50
2018-11-06T05:00:56.718Z,7.50
2018-11-06T05:01:57.163Z,7.52
2018-11-06T05:02:57.587Z,7.53
2018-11-06T05:03:57.973Z,7.54
2018-11-06T05:04:58.622Z,7.55
2018-11-06T05:05:58.485Z,7.56
2018-11-06T05:06:58.925Z,7.55
2018-11-06T05:07:59.218Z,7.55
2018-11-06T05:08:59.529Z,7.56
2018-11-06T05:09:59.826Z,7.54
2018-11-06T05:11:00.139Z,7.55
2018-11-06T05:12:00.473Z,7.56
2018-11-06T05:13:00.779Z,7.56
2018-11-06T05:14:01.139Z,7.56
2018-11-06T05:15:01.687Z,7.57
2018-11-06T05:16:02.002Z,7.57
2018-11-06T05:17:02.112Z,7.58
2018-11-06T05:18:02.574Z,7.60
2018-11-06T05:19:02.960Z,7.60
2018-11-06T05:20:02.886Z,7.60
2018-11-06T05:21:03.264Z,7.58
2018-11-06T05:22:04.295Z,7.61
2018-11-06T05:23:04.503Z,7.60
2018-11-06T05:24:04.617Z,7.61
2018-11-06T05:25:04.932Z,7.62
2018-11-06T05:26:05.142Z,7.63
2018-11-06T05:27:05.554Z,7.62
2018-11-06T05:28:05.764Z,7.64
2018-11-06T05:29:06.084Z,7.65
2018-11-06T05:30:06.208Z,7.66
2018-11-06T05:31:06.401Z,7.64
2018-11-06T05:32:06.409Z,7.65
2018-11-06T05:33:06.093Z,7.66
2018-11-06T05:34:06.737Z,7.67
2018-11-06T05:35:06.705Z,7.67
2018-11-06T05:36:06.940Z,7.69
2018-11-06T05:37:06.951Z,7.66
2018-11-06T05:38:06.953Z,7.67
2018-11-06T05:39:07.409Z,7.67
2018-11-06T05:40:07.244Z,7.68
2018-11-06T05:41:07.387Z,7.68
2018-11-06T05:42:07.472Z,7.70
2018-11-06T05:43:07.667Z,7.72
2018-11-06T05:44:07.856Z,7.72
2018-11-06T05:45:07.863Z,7.73
2018-11-06T05:46:07.973Z,7.73
2018-11-06T05:47:07.967Z,7.73
2018-11-06T05:48:07.974Z,7.73
2018-11-06T05:49:08.463Z,7.74
2018-11-06T05:50:08.789Z,7.74
2018-11-06T05:51:09.383Z,7.74
2018-11-06T05:52:09.070Z,7.76
2018-11-06T05:53:09.222Z,7.76
2018-11-06T05:54:09.197Z,7.77
2018-11-06T05:55:09.291Z,7.77
2018-11-06T05:56:09.472Z,7.77
2018-11-06T05:57:09.278Z,7.77
2018-11-06T05:58:09.599Z,7.77
2018-11-06T05:59:09.971Z,7.78
2018-11-06T06:00:10.365Z,7.78
2018-11-06T06:01:10.874Z,7.78
2018-11-06T06:02:11.212Z,7.77
2018-11-06T06:03:11.485Z,7.78
2018-11-06T06:04:12.022Z,7.79
2018-11-06T06:05:11.935Z,7.78
2018-11-06T06:06:12.418Z,7.78
2018-11-06T06:07:12.868Z,7.77
2018-11-06T06:08:13.204Z,7.76
2018-11-06T06:09:13.496Z,7.77
2018-11-06T06:10:13.843Z,7.76
2018-11-06T06:11:14.353Z,7.74
2018-11-06T06:12:14.596Z,7.75
2018-11-06T06:13:14.902Z,7.75
2018-11-06T06:14:15.445Z,7.75
2018-11-06T06:15:15.995Z,7.76
2018-11-06T06:16:15.408Z,7.76
2018-11-06T06:17:15.888Z,7.76
2018-11-06T06:18:16.238Z,7.79
2018-11-06T06:19:16.574Z,7.78
2018-11-06T06:20:17.529Z,7.80
2018-11-06T06:21:17.394Z,7.80
2018-11-06T06:22:17.742Z,7.80
2018-11-06T06:23:18.908Z,7.80
2018-11-06T06:24:19.007Z,7.79
2018-11-06T06:25:19.232Z,7.78
2018-11-06T06:26:19.229Z,7.77
2018-11-06T06:27:20.159Z,7.77
2018-11-06T06:28:20.797Z,7.73
2018-11-06T06:29:20.695Z,7.72
2018-11-06T06:30:21.014Z,7.69
2018-11-06T06:31:21.074Z,7.69
2018-11-06T06:32:21.826Z,7.68
2018-11-06T06:33:21.840Z,7.69
2018-11-06T06:34:22.051Z,7.69
2018-11-06T06:35:22.139Z,7.67
2018-11-06T06:36:22.231Z,7.66
2018-11-06T06:37:22.141Z,7.65
2018-11-06T06:38:22.473Z,7.65
2018-11-06T06:39:22.664Z,7.65
2018-11-06T06:40:26.180Z,7.63
2018-11-06T06:41:23.620Z,7.61
2018-11-06T06:42:24.062Z,7.60
2018-11-06T06:43:24.105Z,7.60
2018-11-06T06:44:24.543Z,7.59
2018-11-06T06:45:24.899Z,7.60
2018-11-06T06:46:25.698Z,7.58
2018-11-06T06:47:25.606Z,7.57
2018-11-06T06:48:25.844Z,7.56
2018-11-06T06:49:26.282Z,7.56
2018-11-06T06:50:26.720Z,7.55
2018-11-06T06:51:27.107Z,7.55
2018-11-06T06:52:27.529Z,7.56
2018-11-06T06:53:28.063Z,7.54
2018-11-06T06:54:28.098Z,7.55
2018-11-06T06:55:28.257Z,7.54
2018-11-06T06:56:28.679Z,7.54
2018-11-06T06:57:29.349Z,7.56
2018-11-06T06:58:29.306Z,7.55
2018-11-06T06:59:29.753Z,7.56
2018-11-06T07:00:30.143Z,7.56
2018-11-06T07:01:30.577Z,7.56
2018-11-06T07:02:31.033Z,7.57
2018-11-06T07:03:31.404Z,7.57
2018-11-06T07:04:31.723Z,7.58
2018-11-06T07:05:32.233Z,7.59
2018-11-06T07:06:32.741Z,7.60
2018-11-06T07:07:32.636Z,7.61
2018-11-06T07:08:33.750Z,7.62
2018-11-06T07:09:33.444Z,7.63
2018-11-06T07:10:33.959Z,7.65
2018-11-06T07:12:34.176Z,7.66
2018-11-06T07:13:34.997Z,7.68
2018-11-06T07:14:34.796Z,7.70
2018-11-06T07:15:34.918Z,7.72
2018-11-06T07:16:35.322Z,7.74
2018-11-06T07:17:35.740Z,7.76
2018-11-06T07:18:35.853Z,7.78
2018-11-06T07:19:36.267Z,7.80
2018-11-06T07:20:36.487Z,7.83
2018-11-06T07:21:36.691Z,7.85
2018-11-06T07:22:36.695Z,7.87
2018-11-06T07:23:36.901Z,7.89
2018-11-06T07:24:36.805Z,7.91
2018-11-06T07:25:37.191Z,7.94
2018-11-06T07:26:37.434Z,7.97
2018-11-06T07:27:37.273Z,8.00
2018-11-06T07:28:38.091Z,8.03
2018-11-06T07:29:38.274Z,8.06
2018-11-06T07:30:38.483Z,8.10
2018-11-06T07:31:38.697Z,8.13
2018-11-06T07:32:38.867Z,8.17
2018-11-06T07:33:39.439Z,8.20
2018-11-06T07:34:39.452Z,8.24
2018-11-06T07:35:39.574Z,8.27
2018-11-06T07:36:39.316Z,8.30
2018-11-06T07:37:39.626Z,8.33
2018-11-06T07:38:39.923Z,8.37
2018-11-06T07:39:40.801Z,8.40
2018-11-06T07:40:40.812Z,8.43
2018-11-06T07:41:41.076Z,8.46
2018-11-06T07:42:41.778Z,8.48
2018-11-06T07:43:41.680Z,8.50
2018-11-06T07:44:42.405Z,8.53
2018-11-06T07:45:42.478Z,8.55
2018-11-06T07:46:42.826Z,8.57
2018-11-06T07:47:43.237Z,8.59
2018-11-06T07:48:43.654Z,8.61
2018-11-06T07:49:44.054Z,8.63
2018-11-06T07:50:44.385Z,8.65
2018-11-06T07:51:44.841Z,8.66
2018-11-06T07:52:45.223Z,8.68
2018-11-06T07:53:45.840Z,8.70
2018-11-06T07:54:45.775Z,8.72
2018-11-06T07:55:46.231Z,8.75
2018-11-06T07:56:46.587Z,8.80
2018-11-06T07:57:47.000Z,8.86
2018-11-06T07:58:47.404Z,8.93
2018-11-06T07:59:47.923Z,8.99
2018-11-06T08:00:48.729Z,9.05
2018-11-06T08:01:49.319Z,9.11
2018-11-06T08:02:49.664Z,9.17
2018-11-06T08:03:49.866Z,9.24
2018-11-06T08:04:50.283Z,9.29
2018-11-06T08:05:50.705Z,9.35
2018-11-06T08:06:50.986Z,9.40
2018-11-06T08:07:51.080Z,9.44
2018-11-06T08:08:51.473Z,9.48
2018-11-06T08:09:51.747Z,9.51
2018-11-06T08:10:51.857Z,9.53
2018-11-06T08:11:51.874Z,9.55
2018-11-06T08:12:51.958Z,9.58
2018-11-06T08:13:52.344Z,9.60
2018-11-06T08:14:52.636Z,9.61
2018-11-06T08:15:52.708Z,9.62
2018-11-06T08:16:52.825Z,9.62
2018-11-06T08:17:52.926Z,9.63
2018-11-06T08:18:53.076Z,9.65
2018-11-06T08:19:53.246Z,9.66
2018-11-06T08:20:53.541Z,9.69
2018-11-06T08:21:53.732Z,9.72
2018-11-06T08:22:54.151Z,9.75
2018-11-06T08:23:54.168Z,9.79
2018-11-06T08:24:54.226Z,9.81
2018-11-06T08:25:54.397Z,9.84
2018-11-06T08:26:54.443Z,9.87
2018-11-06T08:27:54.549Z,9.90
2018-11-06T08:28:54.829Z,9.94
2018-11-06T08:29:55.190Z,9.99
2018-11-06T08:30:55.913Z,10.05
2018-11-06T08:31:56.422Z,10.10
2018-11-06T08:32:56.410Z,10.15
2018-11-06T08:33:56.734Z,10.22
2018-11-06T08:34:57.313Z,10.32
2018-11-06T08:35:57.197Z,10.41
2018-11-06T08:36:57.709Z,10.48
2018-11-06T08:37:58.053Z,10.53
2018-11-06T08:38:58.427Z,10.56
2018-11-06T08:39:58.824Z,10.58
2018-11-06T08:40:59.253Z,10.59
2018-11-06T08:42:00.077Z,10.60
2018-11-06T08:43:00.003Z,10.60
2018-11-06T08:44:00.439Z,10.61
2018-11-06T08:45:00.820Z,10.61
2018-11-06T08:46:00.905Z,10.62
2018-11-06T08:47:01.255Z,10.64
2018-11-06T08:48:02.151Z,10.66
2018-11-06T08:49:02.512Z,10.68
2018-11-06T08:50:02.454Z,10.70
2018-11-06T08:51:02.724Z,10.73
2018-11-06T08:52:03.198Z,10.75
2018-11-06T08:53:04.014Z,10.78
2018-11-06T08:54:04.016Z,10.82
2018-11-06T08:55:04.235Z,10.85
2018-11-06T08:56:04.853Z,10.89
2018-11-06T08:57:04.882Z,10.95
2018-11-06T08:58:04.947Z,11.00
2018-11-06T08:59:05.079Z,11.03
2018-11-06T09:00:05.077Z,11.05
2018-11-06T09:01:05.802Z,11.07
2018-11-06T09:02:06.081Z,11.08
2018-11-06T09:03:06.338Z,11.10
2018-11-06T09:04:06.951Z,11.11
2018-11-06T09:05:06.853Z,11.13
2018-11-06T09:06:06.949Z,11.14
2018-11-06T09:07:06.956Z,11.17
2018-11-06T09:08:06.979Z,11.20
2018-11-06T09:09:07.322Z,11.22
2018-11-06T09:10:07.473Z,11.25
2018-11-06T09:11:07.675Z,11.29
2018-11-06T09:12:07.874Z,11.32
2018-11-06T09:13:07.807Z,11.35
2018-11-06T09:14:08.126Z,11.37
2018-11-06T09:15:08.815Z,11.39
2018-11-06T09:16:08.696Z,11.42
2018-11-06T09:17:09.408Z,11.45
2018-11-06T09:18:09.673Z,11.47
2018-11-06T09:19:09.491Z,11.48
2018-11-06T09:20:09.812Z,11.50
2018-11-06T09:21:09.967Z,11.52
2018-11-06T09:22:10.292Z,11.54
2018-11-06T09:23:10.805Z,11.56
2018-11-06T09:24:11.212Z,11.57
2018-11-06T09:25:11.660Z,11.60
2018-11-06T09:26:11.938Z,11.63
2018-11-06T09:27:12.264Z,11.66
2018-11-06T09:28:12.681Z,11.68
2018-11-06T09:29:13.086Z,11.71
2018-11-06T09:30:13.678Z,11.75
2018-11-06T09:31:13.666Z,11.79
2018-11-06T09:32:13.998Z,11.84
2018-11-06T09:33:14.359Z,11.88
2018-11-06T09:34:14.665Z,11.93
2018-11-06T09:35:15.585Z,11.98
2018-11-06T09:36:15.505Z,12.03
2018-11-06T09:37:15.915Z,12.08
2018-11-06T09:38:16.407Z,12.13
2018-11-06T09:39:16.746Z,12.18
2018-11-06T09:40:17.623Z,12.23
2018-11-06T09:41:17.330Z,12.28
2018-11-06T09:42:17.724Z,12.33
2018-11-06T09:43:18.380Z,12.39
2018-11-06T09:44:18.877Z,12.43
2018-11-06T09:45:19.715Z,12.47
2018-11-06T09:46:19.923Z,12.51
2018-11-06T09:47:20.440Z,12.54
2018-11-06T09:48:20.968Z,12.58
2018-11-06T09:49:20.861Z,12.62
2018-11-06T09:50:21.181Z,12.65
2018-11-06T09:51:21.490Z,12.68
2018-11-06T09:52:21.697Z,12.71
2018-11-06T09:53:21.617Z,12.74
2018-11-06T09:54:22.138Z,12.76
2018-11-06T09:55:22.314Z,12.78
2018-11-06T09:56:22.305Z,12.81
2018-11-06T09:57:22.495Z,12.84
2018-11-06T09:58:22.612Z,12.87
2018-11-06T09:59:22.808Z,12.90
2018-11-06T10:00:23.055Z,12.92
2018-11-06T10:01:23.194Z,12.95
2018-11-06T10:02:23.392Z,12.97
2018-11-06T10:03:23.610Z,12.99
2018-11-06T10:04:23.744Z,13.02
2018-11-06T10:05:23.901Z,13.05
2018-11-06T10:06:24.309Z,13.08
2018-11-06T10:07:24.694Z,13.11
2018-11-06T10:08:24.480Z,13.14
2018-11-06T10:09:24.809Z,13.18
2018-11-06T10:10:25.280Z,13.23
2018-11-06T10:11:25.953Z,13.27
2018-11-06T10:12:25.756Z,13.32
2018-11-06T10:13:26.170Z,13.45
2018-11-06T10:14:26.508Z,13.46
2018-11-06T10:15:26.937Z,13.47
2018-11-06T10:16:27.316Z,13.48
2018-11-06T10:17:27.627Z,13.51
2018-11-06T10:18:28.067Z,13.53
2018-11-06T10:19:28.492Z,13.56
2018-11-06T10:20:28.948Z,13.59
2018-11-06T10:21:28.924Z,13.63
2018-11-06T10:22:29.306Z,13.67
2018-11-06T10:23:29.736Z,13.71
2018-11-06T10:24:30.177Z,13.88
2018-11-06T10:25:30.574Z,13.89
2018-11-06T10:26:30.925Z,13.90
2018-11-06T10:27:31.254Z,13.89
2018-11-06T10:28:31.280Z,13.88
2018-11-06T10:29:31.429Z,13.86
2018-11-06T10:30:31.840Z,13.85
2018-11-06T10:31:32.369Z,13.84
2018-11-06T10:32:32.525Z,13.84
2018-11-06T10:33:32.449Z,13.84
2018-11-06T10:34:32.941Z,13.85
2018-11-06T10:35:34.173Z,13.86
2018-11-06T10:36:34.484Z,13.87
2018-11-06T10:37:34.792Z,13.86
2018-11-06T10:38:35.212Z,13.87
2018-11-06T10:39:35.640Z,13.89
2018-11-06T10:40:36.118Z,13.98
2018-11-06T10:41:36.355Z,13.98
2018-11-06T10:42:36.772Z,13.99
2018-11-06T10:43:37.107Z,14.00
2018-11-06T10:44:37.023Z,14.04
2018-11-06T10:45:37.454Z,14.20
2018-11-06T10:46:37.542Z,14.23
2018-11-06T10:47:37.678Z,14.24
2018-11-06T10:48:38.243Z,14.26
2018-11-06T10:49:38.454Z,14.31
2018-11-06T10:50:38.645Z,14.30
2018-11-06T10:51:38.880Z,14.33
2018-11-06T10:52:39.105Z,14.32
2018-11-06T10:53:39.288Z,14.35
2018-11-06T10:54:39.287Z,14.40
2018-11-06T10:55:39.287Z,14.41
2018-11-06T10:56:39.867Z,14.41
2018-11-06T10:57:39.943Z,14.46
2018-11-06T10:58:39.834Z,14.46
2018-11-06T10:59:40.213Z,14.52
2018-11-06T11:00:40.613Z,14.54
2018-11-06T11:01:40.961Z,14.61
2018-11-06T11:02:41.053Z,14.62
2018-11-06T11:03:41.046Z,14.69
2018-11-06T11:04:41.509Z,14.80
2018-11-06T11:05:41.960Z,14.87
2018-11-06T11:06:42.339Z,14.90
2018-11-06T11:07:42.723Z,15.06
2018-11-06T11:08:42.721Z,15.11
2018-11-06T11:09:43.462Z,15.10
2018-11-06T11:10:43.347Z,15.11
2018-11-06T11:11:43.939Z,15.15
2018-11-06T11:12:43.866Z,15.17
2018-11-06T11:13:44.354Z,15.19
2018-11-06T11:14:44.771Z,15.30
2018-11-06T11:15:45.093Z,15.35
2018-11-06T11:16:45.435Z,15.36
2018-11-06T11:17:45.842Z,15.37
2018-11-06T11:19:46.295Z,15.37
2018-11-06T11:20:46.656Z,15.39
2018-11-06T11:21:47.104Z,15.39
2018-11-06T11:22:47.513Z,15.40
2018-11-06T11:23:48.204Z,15.42
2018-11-06T11:24:48.629Z,15.45
2018-11-06T11:25:49.503Z,15.46
2018-11-06T11:26:49.654Z,15.48
2018-11-06T11:27:50.084Z,15.48
2018-11-06T11:28:50.490Z,15.51
2018-11-06T11:29:50.910Z,15.52
2018-11-06T11:30:51.202Z,15.52
2018-11-06T11:31:51.235Z,15.56
2018-11-06T11:32:51.439Z,15.60
2018-11-06T11:33:52.015Z,15.63
2018-11-06T11:34:51.668Z,15.65
2018-11-06T11:35:51.866Z,15.67
2018-11-06T11:36:51.962Z,15.65
2018-11-06T11:37:52.162Z,15.62
2018-11-06T11:38:52.053Z,15.58
2018-11-06T11:39:52.362Z,15.58
2018-11-06T11:40:52.541Z,15.53
2018-11-06T11:41:52.664Z,15.51
2018-11-06T11:42:52.929Z,15.50
2018-11-06T11:43:53.041Z,15.50
2018-11-06T11:44:53.452Z,15.54
2018-11-06T11:45:53.707Z,15.53
2018-11-06T11:46:53.853Z,15.53
2018-11-06T11:47:54.049Z,15.50
2018-11-06T11:48:54.003Z,15.51
2018-11-06T11:49:54.359Z,15.45
2018-11-06T11:50:54.671Z,15.46
2018-11-06T11:51:55.080Z,15.45
2018-11-06T11:52:55.551Z,15.44
2018-11-06T11:53:55.908Z,15.44
2018-11-06T11:54:56.360Z,15.45
2018-11-06T11:55:56.763Z,15.43
2018-11-06T11:56:57.151Z,15.43
2018-11-06T11:57:57.879Z,15.44
2018-11-06T11:58:57.787Z,15.48
2018-11-06T11:59:58.258Z,15.50
2018-11-06T12:01:58.709Z,15.51
2018-11-06T12:02:59.044Z,15.54
2018-11-06T12:03:59.451Z,15.55
2018-11-06T12:04:59.793Z,15.54
2018-11-06T12:06:00.203Z,15.58
2018-11-06T12:07:00.509Z,15.58
2018-11-06T12:08:00.952Z,15.58
2018-11-06T12:09:01.699Z,15.58
2018-11-06T12:10:02.322Z,15.59
2018-11-06T12:11:02.762Z,15.60
2018-11-06T12:12:02.310Z,15.58
2018-11-06T12:13:02.760Z,15.48
2018-11-06T12:14:03.175Z,15.52
2018-11-06T12:15:03.643Z,15.49
2018-11-06T12:16:04.423Z,15.53
2018-11-06T12:17:05.036Z,15.60
2018-11-06T12:18:04.868Z,15.61
2018-11-06T12:19:04.947Z,15.67
2018-11-06T12:20:05.173Z,15.66
2018-11-06T12:21:05.321Z,15.68
2018-11-06T12:22:05.579Z,15.77
2018-11-06T12:23:05.686Z,15.81
2018-11-06T12:24:05.956Z,15.84
2018-11-06T12:25:06.347Z,15.89
2018-11-06T12:26:06.537Z,15.80
2018-11-06T12:27:06.944Z,15.92
2018-11-06T12:28:06.952Z,15.98
2018-11-06T12:29:07.163Z,15.99
2018-11-06T12:30:07.211Z,16.00
2018-11-06T12:31:07.379Z,15.99
2018-11-06T12:32:07.345Z,15.96
2018-11-06T12:33:07.535Z,15.95
2018-11-06T12:34:07.553Z,15.93
2018-11-06T12:35:07.683Z,15.88
2018-11-06T12:36:07.894Z,15.84
2018-11-06T12:37:07.860Z,15.82
2018-11-06T12:38:08.250Z,15.81
2018-11-06T12:39:08.440Z,15.76
2018-11-06T12:40:08.822Z,15.76
2018-11-06T12:41:08.713Z,15.81
2018-11-06T12:42:08.938Z,15.82
2018-11-06T12:43:09.973Z,15.85
2018-11-06T12:44:09.753Z,15.87
2018-11-06T12:45:10.148Z,15.87
2018-11-06T12:46:10.398Z,15.95
2018-11-06T12:47:10.858Z,16.00
2018-11-06T12:48:11.578Z,16.04
2018-11-06T12:49:11.417Z,16.10
2018-11-06T12:50:11.955Z,16.13
2018-11-06T12:51:12.318Z,16.13
2018-11-06T12:52:12.179Z,16.11
2018-11-06T12:53:12.885Z,16.12
2018-11-06T12:54:12.995Z,16.12
2018-11-06T12:55:13.661Z,16.15
2018-11-06T12:56:13.930Z,16.16
2018-11-06T12:57:13.725Z,16.20
2018-11-06T12:58:14.637Z,16.23
2018-11-06T12:59:14.938Z,16.24
2018-11-06T13:00:15.276Z,16.27
2018-11-06T13:01:15.517Z,16.27
2018-11-06T13:02:15.691Z,16.28
2018-11-06T13:03:16.129Z,16.38
2018-11-06T13:04:19.780Z,16.39
2018-11-06T13:05:16.520Z,16.39
2018-11-06T13:06:16.826Z,16.38
2018-11-06T13:07:16.713Z,16.40
2018-11-06T13:08:17.446Z,16.39
2018-11-06T13:09:17.437Z,16.35
2018-11-06T13:10:17.806Z,16.37
2018-11-06T13:11:19.017Z,16.37
2018-11-06T13:12:19.524Z,16.40
2018-11-06T13:13:19.536Z,16.39
2018-11-06T13:14:19.959Z,16.38
2018-11-06T13:15:20.469Z,16.36
2018-11-06T13:16:24.790Z,16.36
2018-11-06T13:17:21.300Z,16.33
2018-11-06T13:18:21.511Z,16.33